Time;durP1;ratioP1;P1;durP2;ratioP2;P2;SDS_P1;SDS_P2;PMS_P1;PMS_P2;Temp;Humidity;BMP_temperature;BMP_pressure;BME280_temperature;BME280_humidity;BME280_pressure;Samples;Min_cycle;Max_cycle;Signal;HPM_P1;HPM_P2
2021/05/23 00:01:59;;;;;;;;;;;9.80;99.90;;;;;;10057727;29;20283;-53
2021/05/23 00:07:00;;;;;;;;;;;9.70;99.90;;;;;;10055795;29;19991;-53
2021/05/23 00:12:00;;;;;;;;;;;9.70;99.90;;;;;;10055922;29;19916;-53
2021/05/23 00:17:01;;;;;;;;;;;9.60;99.90;;;;;;10054069;29;20181;-53
2021/05/23 00:22:03;;;;;;;;;;;9.60;99.90;;;;;;10055979;29;20247;-53
2021/05/23 00:27:04;;;;;;;;;;;9.70;99.90;;;;;;10059658;29;19920;-53
2021/05/23 00:32:06;;;;;;;;;;;9.60;99.90;;;;;;10057608;29;19970;-53
2021/05/23 00:37:07;;;;;;;;;;;9.60;99.90;;;;;;10052178;29;19916;-53
2021/05/23 00:42:09;;;;;;;;;;;9.70;99.90;;;;;;10053196;29;19988;-53
2021/05/23 00:47:10;;;;;;;;;;;9.70;99.90;;;;;;10055775;29;19923;-53
2021/05/23 00:52:11;;;;;;;;;;;9.60;99.90;;;;;;10050277;29;19951;-53
2021/05/23 00:57:11;;;;;;;;;;;9.60;99.90;;;;;;10056943;29;19924;-53
2021/05/23 01:02:12;;;;;;;;;;;9.60;99.90;;;;;;10054575;29;19959;-53
2021/05/23 01:07:12;;;;;;;;;;;9.60;99.90;;;;;;10051949;29;19919;-53
2021/05/23 01:12:22;;;;;;;;;;;9.60;99.90;;;;;;10054447;29;20395;-53
2021/05/23 01:17:25;;;;;;;;;;;9.60;99.90;;;;;;10058611;29;20398;-53
2021/05/23 01:22:45;;;;;;;;;;;9.60;99.90;;;;;;10061406;29;20361;-53
2021/05/23 01:27:48;;;;;;;;;;;9.50;99.90;;;;;;10064196;29;19920;-53
2021/05/23 01:32:49;;;;;;;;;;;9.50;99.90;;;;;;10059740;29;19919;-53
2021/05/23 01:37:51;;;;;;;;;;;9.60;99.90;;;;;;10061883;29;19919;-53
2021/05/23 01:42:52;;;;;;;;;;;9.60;99.90;;;;;;10061573;29;19927;-53
2021/05/23 01:47:53;;;;;;;;;;;9.70;99.90;;;;;;10060889;29;21543;-53
2021/05/23 01:52:54;;;;;;;;;;;9.60;99.90;;;;;;10060544;29;19916;-53
2021/05/23 01:57:55;;;;;;;;;;;9.60;99.90;;;;;;10063525;29;19971;-53
2021/05/23 02:02:57;;;;;;;;;;;9.60;99.90;;;;;;10062183;29;19920;-53
2021/05/23 02:07:58;;;;;;;;;;;9.60;99.90;;;;;;10066953;29;19920;-53
2021/05/23 02:13:02;;;;;;;;;;;9.60;99.90;;;;;;10060125;29;19924;-53
2021/05/23 02:18:03;;;;;;;;;;;9.60;99.90;;;;;;10058262;29;19979;-53
2021/05/23 02:23:05;;;;;;;;;;;9.60;99.90;;;;;;10064692;29;19919;-53
2021/05/23 02:28:07;;;;;;;;;;;9.60;99.90;;;;;;10063220;29;19966;-53
2021/05/23 02:38:12;;;;;;;;;;;9.70;99.90;;;;;;10014225;29;19932;-53
2021/05/23 02:43:13;;;;;;;;;;;9.70;99.90;;;;;;10013678;29;20354;-53
2021/05/23 02:48:14;;;;;;;;;;;9.60;99.90;;;;;;10013592;29;19929;-53
2021/05/23 02:53:15;;;;;;;;;;;9.60;99.90;;;;;;10016075;29;20228;-53
2021/05/23 02:58:16;;;;;;;;;;;9.50;99.90;;;;;;10018143;29;19920;-53
2021/05/23 03:03:17;;;;;;;;;;;9.40;99.90;;;;;;10009772;29;19916;-53
2021/05/23 03:08:18;;;;;;;;;;;9.50;99.90;;;;;;10011167;29;19928;-53
2021/05/23 03:13:19;;;;;;;;;;;9.40;99.90;;;;;;10012118;29;19926;-53
2021/05/23 03:18:19;;;;;;;;;;;9.40;99.90;;;;;;10012007;29;19936;-53
2021/05/23 03:23:20;;;;;;;;;;;9.50;99.90;;;;;;10010565;29;19920;-53
2021/05/23 03:28:21;;;;;;;;;;;9.50;99.90;;;;;;10009544;29;19928;-53
2021/05/23 03:33:22;;;;;;;;;;;9.60;99.90;;;;;;10008098;29;20288;-53
2021/05/23 03:38:23;;;;;;;;;;;9.60;99.90;;;;;;10007869;29;19975;-53
2021/05/23 03:43:24;;;;;;;;;;;9.70;99.90;;;;;;10008284;29;19927;-53
2021/05/23 03:48:24;;;;;;;;;;;9.70;99.90;;;;;;10010694;29;19934;-53
2021/05/23 03:53:25;;;;;;;;;;;9.70;99.90;;;;;;10008724;29;20267;-53
2021/05/23 03:58:25;;;;;;;;;;;9.70;99.90;;;;;;10008653;29;20463;-53
2021/05/23 04:03:28;;;;;;;;;;;9.80;99.90;;;;;;10008120;29;19991;-53
2021/05/23 04:08:28;;;;;;;;;;;9.80;99.90;;;;;;10004261;29;20010;-53
2021/05/23 04:13:31;;;;;;;;;;;9.90;99.90;;;;;;10008738;29;19917;-53
2021/05/23 04:18:32;;;;;;;;;;;9.90;99.90;;;;;;9987799;29;19931;-53
2021/05/23 04:23:32;;;;;;;;;;;10.00;99.90;;;;;;10007794;29;19955;-53
2021/05/23 04:28:33;;;;;;;;;;;9.90;99.90;;;;;;10009190;29;20009;-53
2021/05/23 04:33:34;;;;;;;;;;;9.90;99.90;;;;;;10006245;29;19921;-52
2021/05/23 04:38:34;;;;;;;;;;;9.90;99.90;;;;;;10005796;29;19928;-53
2021/05/23 04:43:35;;;;;;;;;;;9.70;99.90;;;;;;10007235;29;20047;-53
2021/05/23 04:48:36;;;;;;;;;;;9.70;99.90;;;;;;10008217;29;19928;-53
2021/05/23 04:53:36;;;;;;;;;;;9.60;99.90;;;;;;10012062;29;19938;-53
2021/05/23 04:58:37;;;;;;;;;;;9.60;99.90;;;;;;10013690;29;20369;-53
2021/05/23 05:03:37;;;;;;;;;;;9.60;99.90;;;;;;10012644;29;19920;-53
2021/05/23 05:08:38;;;;;;;;;;;9.80;99.90;;;;;;10006672;29;19985;-53
2021/05/23 05:13:39;;;;;;;;;;;9.80;99.90;;;;;;9998161;29;19988;-53
2021/05/23 05:18:40;;;;;;;;;;;10.00;99.90;;;;;;10015223;29;19924;-53
2021/05/23 05:23:40;;;;;;;;;;;10.20;99.90;;;;;;10011939;29;19924;-53
2021/05/23 05:28:41;;;;;;;;;;;10.20;99.90;;;;;;10018920;29;20383;-51
2021/05/23 05:33:42;;;;;;;;;;;10.10;99.90;;;;;;10012904;29;19963;-51
2021/05/23 05:38:42;;;;;;;;;;;9.70;99.90;;;;;;10013588;29;20521;-53
2021/05/23 05:43:43;;;;;;;;;;;9.40;99.90;;;;;;10013496;29;20332;-52
2021/05/23 05:48:44;;;;;;;;;;;9.30;99.90;;;;;;10011693;29;20494;-52
2021/05/23 05:53:44;;;;;;;;;;;9.40;99.90;;;;;;10011944;29;19920;-52
2021/05/23 05:58:45;;;;;;;;;;;9.30;99.90;;;;;;10012192;29;20371;-52
2021/05/23 06:03:46;;;;;;;;;;;9.20;99.90;;;;;;10014895;29;20041;-52
2021/05/23 06:08:46;;;;;;;;;;;9.10;99.90;;;;;;10017878;29;19932;-52
2021/05/23 06:18:04;;;;;;;;;;;9.10;99.90;;;;;;10389759;27;19964;-54
2021/05/23 06:23:04;;;;;;;;;;;9.00;99.90;;;;;;10393963;28;19957;-54
2021/05/23 06:28:05;;;;;;;;;;;9.00;99.90;;;;;;10395842;28;20131;-55
2021/05/23 06:33:05;;;;;;;;;;;8.90;99.90;;;;;;10391972;28;19975;-55
2021/05/23 06:38:06;;;;;;;;;;;9.00;99.90;;;;;;10391218;28;20551;-55
2021/05/23 06:43:07;;;;;;;;;;;9.00;99.90;;;;;;10388297;28;19921;-55
2021/05/23 06:48:09;;;;;;;;;;;9.00;99.90;;;;;;10391622;28;20378;-55
2021/05/23 06:53:09;;;;;;;;;;;9.00;99.90;;;;;;10382706;28;20431;-55
2021/05/23 06:58:10;;;;;;;;;;;9.00;99.90;;;;;;10390076;28;19929;-55
2021/05/23 07:03:11;;;;;;;;;;;9.10;99.90;;;;;;10349119;28;19943;-55
2021/05/23 07:08:12;;;;;;;;;;;9.10;99.90;;;;;;10389348;28;19968;-55
2021/05/23 07:13:12;;;;;;;;;;;9.30;99.90;;;;;;10369508;28;19943;-55
2021/05/23 07:18:13;;;;;;;;;;;9.50;99.90;;;;;;10381087;28;19925;-55
2021/05/23 07:23:14;;;;;;;;;;;9.80;99.90;;;;;;10385722;28;20487;-55
2021/05/23 07:28:14;;;;;;;;;;;10.10;99.90;;;;;;10367527;28;19991;-55
2021/05/23 07:33:15;;;;;;;;;;;10.40;99.90;;;;;;10360901;28;20016;-55
2021/05/23 07:38:16;;;;;;;;;;;10.60;99.90;;;;;;10354498;28;20393;-54
2021/05/23 07:43:17;;;;;;;;;;;10.70;99.90;;;;;;10360665;28;19956;-55
2021/05/23 07:48:17;;;;;;;;;;;10.80;99.90;;;;;;10359692;28;19948;-55
2021/05/23 07:53:18;;;;;;;;;;;11.00;99.90;;;;;;10367366;28;19979;-55
2021/05/23 07:58:19;;;;;;;;;;;11.40;99.90;;;;;;10362639;28;19926;-55
2021/05/23 08:03:19;;;;;;;;;;;11.40;99.90;;;;;;10338298;28;19925;-55
2021/05/23 08:08:20;;;;;;;;;;;11.40;99.90;;;;;;10355877;28;19932;-55
2021/05/23 08:13:21;;;;;;;;;;;11.50;99.90;;;;;;10343327;28;19940;-55
2021/05/23 08:18:28;;;;;;;;;;;11.50;99.90;;;;;;10362986;28;20287;-55
2021/05/23 08:23:29;;;;;;;;;;;11.70;99.90;;;;;;10343808;28;19917;-54
2021/05/23 08:28:32;;;;;;;;;;;11.80;99.90;;;;;;10358568;28;19927;-54
2021/05/23 08:33:32;;;;;;;;;;;12.00;99.90;;;;;;10361120;28;19979;-54
2021/05/23 08:38:33;;;;;;;;;;;12.20;99.90;;;;;;10354636;28;21782;-54
2021/05/23 08:43:34;;;;;;;;;;;12.20;99.90;;;;;;10350968;28;20221;-54
2021/05/23 08:48:35;;;;;;;;;;;12.10;99.90;;;;;;10359382;28;19921;-54
2021/05/23 08:53:36;;;;;;;;;;;12.00;99.90;;;;;;10358212;28;20349;-54
2021/05/23 08:58:36;;;;;;;;;;;11.80;99.90;;;;;;10354976;28;20285;-54
2021/05/23 09:03:37;;;;;;;;;;;11.50;99.90;;;;;;10349340;28;20376;-54
2021/05/23 09:08:55;;;;;;;;;;;11.40;99.90;;;;;;10360224;28;19957;-54
2021/05/23 09:13:56;;;;;;;;;;;11.30;99.90;;;;;;10338308;28;20261;-54
2021/05/23 09:18:56;;;;;;;;;;;11.30;99.90;;;;;;10359136;28;19944;-54
2021/05/23 09:23:58;;;;;;;;;;;11.20;99.90;;;;;;10353850;28;20385;-54
2021/05/23 09:29:06;;;;;;;;;;;11.30;99.90;;;;;;10352784;28;20276;-54
2021/05/23 09:34:08;;;;;;;;;;;11.50;99.90;;;;;;10352950;28;19921;-55
2021/05/23 09:39:08;;;;;;;;;;;11.80;99.90;;;;;;10351039;28;19917;-54
2021/05/23 09:44:22;;;;;;;;;;;12.10;99.90;;;;;;10346321;28;19921;-55
2021/05/23 09:49:23;;;;;;;;;;;12.20;99.90;;;;;;10356316;28;20236;-54
2021/05/23 09:54:26;;;;;;;;;;;12.20;99.90;;;;;;10350776;28;20451;-54
2021/05/23 09:59:27;;;;;;;;;;;12.20;99.90;;;;;;10357179;28;19921;-54
2021/05/23 10:04:28;;;;;;;;;;;12.10;99.90;;;;;;10351166;28;20367;-54
2021/05/23 10:09:29;;;;;;;;;;;12.10;99.90;;;;;;10348986;28;20007;-54
2021/05/23 10:14:29;;;;;;;;;;;12.30;99.90;;;;;;10354227;28;20391;-54
2021/05/23 10:19:31;;;;;;;;;;;12.30;99.90;;;;;;10357672;28;19929;-54
2021/05/23 10:24:41;;;;;;;;;;;12.50;99.90;;;;;;10354502;28;20292;-54
2021/05/23 10:29:46;;;;;;;;;;;12.80;99.90;;;;;;10357269;28;20520;-54
2021/05/23 10:34:48;;;;;;;;;;;12.60;99.90;;;;;;10353045;28;20455;-54
2021/05/23 10:39:52;;;;;;;;;;;12.50;99.90;;;;;;10358343;28;20631;-54
2021/05/23 10:44:57;;;;;;;;;;;12.30;99.90;;;;;;10357426;28;20303;-54
2021/05/23 10:49:59;;;;;;;;;;;12.60;99.90;;;;;;10354555;28;20296;-54
2021/05/23 10:55:03;;;;;;;;;;;13.30;99.90;;;;;;10358661;28;20375;-54
2021/05/23 11:00:04;;;;;;;;;;;14.00;99.90;;;;;;10360104;28;19917;-54
2021/05/23 11:05:10;;;;;;;;;;;13.90;99.90;;;;;;10361743;28;20449;-54
2021/05/23 11:10:15;;;;;;;;;;;13.60;99.90;;;;;;10366463;28;19929;-54
2021/05/23 11:15:16;;;;;;;;;;;13.60;99.90;;;;;;10363921;28;20024;-54
2021/05/23 11:20:18;;;;;;;;;;;13.60;99.90;;;;;;10360166;28;20051;-54
2021/05/23 11:25:20;;;;;;;;;;;13.50;99.90;;;;;;10361873;28;19917;-54
2021/05/23 11:30:20;;;;;;;;;;;13.90;99.90;;;;;;10361976;28;20011;-54
2021/05/23 11:35:22;;;;;;;;;;;14.10;99.90;;;;;;10369372;28;19921;-53
2021/05/23 11:40:23;;;;;;;;;;;14.40;99.90;;;;;;10366813;28;19917;-54
2021/05/23 11:45:24;;;;;;;;;;;14.70;99.90;;;;;;10370100;28;19970;-54
2021/05/23 11:50:26;;;;;;;;;;;14.70;99.90;;;;;;10366968;28;19921;-51
2021/05/23 11:55:28;;;;;;;;;;;15.50;99.90;;;;;;10371551;28;20024;-51
2021/05/23 12:00:29;;;;;;;;;;;15.60;99.90;;;;;;10359911;28;19922;-51
2021/05/23 12:05:43;;;;;;;;;;;15.50;99.90;;;;;;10366912;28;20225;-51
2021/05/23 12:10:44;;;;;;;;;;;15.30;99.90;;;;;;10364892;28;20674;-51
2021/05/23 12:15:55;;;;;;;;;;;15.30;99.90;;;;;;10363096;28;19981;-51
2021/05/23 12:20:55;;;;;;;;;;;15.00;99.90;;;;;;10367822;28;19921;-53
2021/05/23 12:25:56;;;;;;;;;;;14.60;99.90;;;;;;10367279;28;20100;-53
2021/05/23 12:31:00;;;;;;;;;;;14.50;99.90;;;;;;10363324;28;20411;-53
2021/05/23 12:36:08;;;;;;;;;;;14.40;99.90;;;;;;10362960;28;19928;-53
2021/05/23 12:41:12;;;;;;;;;;;14.70;99.90;;;;;;10364221;28;19921;-51
2021/05/23 12:46:15;;;;;;;;;;;15.20;99.90;;;;;;10365168;28;20015;-51
2021/05/23 12:51:17;;;;;;;;;;;16.00;99.90;;;;;;10362138;28;19921;-51
2021/05/23 12:56:22;;;;;;;;;;;16.30;99.90;;;;;;10367871;28;19921;-53
2021/05/23 13:01:24;;;;;;;;;;;15.90;99.80;;;;;;10365011;28;20447;-53
2021/05/23 13:06:27;;;;;;;;;;;16.00;99.40;;;;;;10359519;28;19918;-54
2021/05/23 13:11:27;;;;;;;;;;;16.00;99.90;;;;;;10363725;28;19964;-53
2021/05/23 13:16:28;;;;;;;;;;;15.70;99.80;;;;;;10364853;28;20258;-51
2021/05/23 13:21:29;;;;;;;;;;;15.90;99.90;;;;;;10359333;28;19921;-51
2021/05/23 13:26:29;;;;;;;;;;;16.00;99.90;;;;;;10364474;28;19921;-51
2021/05/23 13:31:30;;;;;;;;;;;16.80;99.20;;;;;;10358294;28;20136;-51
2021/05/23 13:36:30;;;;;;;;;;;16.20;99.90;;;;;;10357643;28;19929;-51
2021/05/23 13:41:34;;;;;;;;;;;16.00;99.90;;;;;;10360041;28;19944;-51
2021/05/23 13:46:35;;;;;;;;;;;16.00;99.90;;;;;;10357587;28;19953;-51
2021/05/23 13:51:37;;;;;;;;;;;16.30;99.90;;;;;;10353994;28;20357;-51
2021/05/23 13:56:37;;;;;;;;;;;16.00;99.90;;;;;;10355466;28;19925;-51
2021/05/23 14:01:48;;;;;;;;;;;15.80;99.90;;;;;;10355382;28;19917;-51
2021/05/23 14:06:49;;;;;;;;;;;15.70;99.90;;;;;;10356593;28;20004;-51
2021/05/23 14:11:50;;;;;;;;;;;15.50;99.90;;;;;;10354014;28;19921;-52
2021/05/23 14:16:50;;;;;;;;;;;15.40;99.90;;;;;;10354572;28;19941;-51
2021/05/23 14:21:51;;;;;;;;;;;15.30;99.90;;;;;;10355125;28;19928;-51
2021/05/23 14:26:52;;;;;;;;;;;14.90;99.90;;;;;;10353914;28;20214;-51
2021/05/23 14:31:52;;;;;;;;;;;15.00;99.90;;;;;;10354327;28;20359;-51
2021/05/23 14:36:53;;;;;;;;;;;15.20;99.90;;;;;;10357727;28;19925;-52
2021/05/23 14:41:54;;;;;;;;;;;15.30;99.90;;;;;;10364102;28;20020;-51
2021/05/23 14:46:54;;;;;;;;;;;15.40;99.90;;;;;;10360922;28;19984;-52
2021/05/23 14:51:55;;;;;;;;;;;15.40;99.90;;;;;;10361521;28;19927;-52
2021/05/23 14:56:55;;;;;;;;;;;15.60;99.90;;;;;;10366139;28;20288;-51
2021/05/23 15:01:56;;;;;;;;;;;15.60;99.90;;;;;;10361550;28;19918;-52
2021/05/23 15:06:57;;;;;;;;;;;15.70;99.90;;;;;;10361361;28;19921;-51
2021/05/23 15:11:58;;;;;;;;;;;15.90;99.90;;;;;;10357500;28;19917;-51
2021/05/23 15:16:58;;;;;;;;;;;16.00;99.90;;;;;;10358046;28;20003;-51
2021/05/23 15:21:59;;;;;;;;;;;15.90;99.90;;;;;;10359825;28;20365;-51
2021/05/23 15:27:05;;;;;;;;;;;15.80;99.90;;;;;;10357872;28;19924;-51
2021/05/23 15:32:07;;;;;;;;;;;15.60;99.90;;;;;;10358505;28;20263;-51
2021/05/23 15:37:07;;;;;;;;;;;15.50;99.90;;;;;;10358071;28;20404;-51
2021/05/23 15:42:08;;;;;;;;;;;15.50;99.90;;;;;;10360213;28;19929;-51
2021/05/23 15:47:09;;;;;;;;;;;15.40;99.90;;;;;;10359911;28;19921;-51
2021/05/23 15:52:10;;;;;;;;;;;15.30;99.90;;;;;;10359635;28;19944;-51
2021/05/23 15:57:11;;;;;;;;;;;15.20;99.90;;;;;;10360782;28;20292;-51
2021/05/23 16:02:11;;;;;;;;;;;15.20;99.90;;;;;;10358982;28;19926;-51
2021/05/23 16:07:12;;;;;;;;;;;15.20;99.90;;;;;;10358481;28;20012;-52
2021/05/23 16:12:14;;;;;;;;;;;15.20;99.90;;;;;;10361495;28;20434;-51
2021/05/23 16:17:15;;;;;;;;;;;15.30;99.90;;;;;;10359720;28;19936;-52
2021/05/23 16:22:16;;;;;;;;;;;15.30;99.90;;;;;;10360635;28;20300;-52
2021/05/23 16:27:16;;;;;;;;;;;15.30;99.90;;;;;;10357969;28;19926;-52
2021/05/23 16:32:17;;;;;;;;;;;15.30;99.90;;;;;;10355493;28;19925;-51
2021/05/23 16:37:18;;;;;;;;;;;15.30;99.90;;;;;;10356257;28;19925;-51
2021/05/23 16:42:19;;;;;;;;;;;15.30;99.90;;;;;;10360307;28;20363;-51
2021/05/23 16:47:19;;;;;;;;;;;15.30;99.90;;;;;;10357722;28;19949;-52
2021/05/23 16:52:20;;;;;;;;;;;15.20;99.90;;;;;;10359038;28;19932;-52
2021/05/23 16:57:21;;;;;;;;;;;15.30;99.90;;;;;;10356072;28;20534;-52
2021/05/23 17:02:22;;;;;;;;;;;15.10;99.90;;;;;;10355485;28;19917;-52
2021/05/23 17:07:22;;;;;;;;;;;15.10;99.90;;;;;;10370487;28;20012;-52
2021/05/23 17:12:23;;;;;;;;;;;15.10;99.90;;;;;;10354184;28;19964;-52
2021/05/23 17:17:24;;;;;;;;;;;15.00;99.90;;;;;;10357240;28;19929;-52
2021/05/23 17:22:26;;;;;;;;;;;15.10;99.90;;;;;;10355183;28;20274;-52
2021/05/23 17:27:26;;;;;;;;;;;15.10;99.90;;;;;;10359083;28;20012;-52
2021/05/23 17:32:27;;;;;;;;;;;15.10;99.90;;;;;;10356875;28;19937;-52
2021/05/23 17:37:27;;;;;;;;;;;15.00;99.90;;;;;;10355228;28;20209;-52
2021/05/23 17:42:28;;;;;;;;;;;15.10;99.90;;;;;;10355932;28;19952;-52
2021/05/23 17:47:29;;;;;;;;;;;15.00;99.90;;;;;;10355730;28;19921;-52
2021/05/23 17:52:29;;;;;;;;;;;14.90;99.90;;;;;;10354847;28;19944;-52
2021/05/23 17:57:33;;;;;;;;;;;14.90;99.90;;;;;;10358626;28;20008;-52
2021/05/23 18:02:33;;;;;;;;;;;14.80;99.90;;;;;;10357026;28;19975;-52
2021/05/23 18:07:34;;;;;;;;;;;14.70;99.90;;;;;;10352451;28;20384;-52
2021/05/23 18:12:35;;;;;;;;;;;14.70;99.90;;;;;;10353814;28;20015;-52
2021/05/23 18:17:35;;;;;;;;;;;14.60;99.90;;;;;;10356260;28;19940;-52
2021/05/23 18:22:36;;;;;;;;;;;14.60;99.90;;;;;;10354619;28;19917;-52
2021/05/23 18:27:36;;;;;;;;;;;14.50;99.90;;;;;;10354523;28;19925;-52
2021/05/23 18:32:38;;;;;;;;;;;14.40;99.90;;;;;;10354256;28;19935;-52
2021/05/23 18:37:40;;;;;;;;;;;14.40;99.90;;;;;;10352569;28;20367;-52
2021/05/23 18:42:41;;;;;;;;;;;14.40;99.90;;;;;;10354054;28;19924;-52
2021/05/23 18:47:41;;;;;;;;;;;14.30;99.90;;;;;;10355145;28;20007;-51
2021/05/23 18:52:42;;;;;;;;;;;14.40;99.90;;;;;;10355262;28;19943;-51
2021/05/23 18:57:43;;;;;;;;;;;14.30;99.90;;;;;;10354466;28;19925;-51
2021/05/23 19:02:45;;;;;;;;;;;14.30;99.90;;;;;;10353790;28;19922;-52
2021/05/23 19:07:45;;;;;;;;;;;14.30;99.90;;;;;;10352437;28;19928;-51
2021/05/23 19:12:46;;;;;;;;;;;14.20;99.90;;;;;;10354652;28;19917;-51
2021/05/23 19:17:47;;;;;;;;;;;14.00;99.90;;;;;;10354090;28;19922;-52
2021/05/23 19:22:48;;;;;;;;;;;13.80;99.90;;;;;;10359914;28;19921;-52
2021/05/23 19:27:49;;;;;;;;;;;13.60;99.90;;;;;;10363237;28;20369;-51
2021/05/23 19:32:49;;;;;;;;;;;13.60;99.90;;;;;;10357790;28;19943;-51
2021/05/23 19:37:50;;;;;;;;;;;13.60;99.90;;;;;;10361748;28;19931;-51
2021/05/23 19:42:51;;;;;;;;;;;13.50;99.90;;;;;;10359574;28;19952;-52
2021/05/23 19:47:51;;;;;;;;;;;13.50;99.90;;;;;;10359354;28;20202;-52
2021/05/23 19:52:52;;;;;;;;;;;13.50;99.90;;;;;;10360388;28;19918;-52
2021/05/23 19:57:53;;;;;;;;;;;13.50;99.90;;;;;;10360971;28;19925;-52
2021/05/23 20:02:53;;;;;;;;;;;13.50;99.90;;;;;;10358929;28;19932;-51
2021/05/23 20:07:56;;;;;;;;;;;13.50;99.90;;;;;;10365606;28;20207;-52
2021/05/23 20:12:57;;;;;;;;;;;13.30;99.90;;;;;;10363420;28;20280;-51
2021/05/23 20:18:00;;;;;;;;;;;13.40;99.90;;;;;;10356822;28;20000;-52
2021/05/23 20:23:01;;;;;;;;;;;13.30;99.90;;;;;;10361090;28;20393;-52
2021/05/23 20:28:05;;;;;;;;;;;13.40;99.90;;;;;;10360597;28;20268;-51
2021/05/23 20:33:06;;;;;;;;;;;13.40;99.90;;;;;;10360990;28;20392;-51
2021/05/23 20:38:06;;;;;;;;;;;13.30;99.90;;;;;;10359412;28;19925;-51
2021/05/23 20:43:07;;;;;;;;;;;13.40;99.90;;;;;;10359052;28;19952;-51
2021/05/23 20:48:08;;;;;;;;;;;13.30;99.90;;;;;;10357244;28;20217;-51
2021/05/23 20:53:09;;;;;;;;;;;13.20;99.90;;;;;;10358829;28;19921;-52
2021/05/23 20:58:09;;;;;;;;;;;13.10;99.90;;;;;;10358952;28;20361;-51
2021/05/23 21:03:10;;;;;;;;;;;13.00;99.90;;;;;;10356314;28;19923;-51
2021/05/23 21:08:11;;;;;;;;;;;12.80;99.90;;;;;;10361179;28;19925;-51
2021/05/23 21:13:12;;;;;;;;;;;12.70;99.90;;;;;;10355693;28;19944;-51
2021/05/23 21:18:12;;;;;;;;;;;12.70;99.90;;;;;;10353243;28;20268;-52
2021/05/23 21:23:14;;;;;;;;;;;12.60;99.90;;;;;;10358266;28;19925;-52
2021/05/23 21:28:15;;;;;;;;;;;12.60;99.90;;;;;;10356601;28;19960;-51
2021/05/23 21:33:16;;;;;;;;;;;12.60;99.90;;;;;;10353929;28;19917;-51
2021/05/23 21:38:17;;;;;;;;;;;12.50;99.90;;;;;;10360432;28;19926;-52
2021/05/23 21:43:19;;;;;;;;;;;12.60;99.90;;;;;;10360199;28;19928;-52
2021/05/23 21:48:22;;;;;;;;;;;12.50;99.90;;;;;;10351534;28;19922;-51
2021/05/23 21:53:23;;;;;;;;;;;12.40;99.90;;;;;;10358467;28;19918;-52
2021/05/23 21:58:24;;;;;;;;;;;12.40;99.90;;;;;;10355787;28;19957;-51
2021/05/23 22:03:27;;;;;;;;;;;12.50;99.90;;;;;;10354124;28;19922;-52
2021/05/23 22:08:27;;;;;;;;;;;12.50;99.90;;;;;;10360105;28;20060;-52
2021/05/23 22:13:28;;;;;;;;;;;12.60;99.90;;;;;;10356199;28;20105;-51
2021/05/23 22:18:29;;;;;;;;;;;12.50;99.90;;;;;;10355936;28;19931;-51
2021/05/23 22:23:30;;;;;;;;;;;12.60;99.90;;;;;;10357105;28;20369;-52
2021/05/23 22:28:31;;;;;;;;;;;12.80;99.90;;;;;;10359155;28;19929;-51
2021/05/23 22:33:32;;;;;;;;;;;13.00;99.90;;;;;;10354900;28;19922;-51
2021/05/23 22:38:35;;;;;;;;;;;13.10;99.90;;;;;;10359696;28;20456;-52
2021/05/23 22:43:40;;;;;;;;;;;13.10;99.90;;;;;;10354226;28;19924;-51
2021/05/23 22:48:41;;;;;;;;;;;13.20;99.90;;;;;;10350817;28;19960;-51
2021/05/23 22:53:41;;;;;;;;;;;13.20;99.90;;;;;;10356298;28;20403;-51
2021/05/23 22:58:42;;;;;;;;;;;13.20;99.90;;;;;;10357726;28;19922;-51
2021/05/23 23:04:06;;;;;;;;;;;13.20;99.90;;;;;;10360144;28;19921;-51
2021/05/23 23:09:05;;;;;;;;;;;13.20;99.90;;;;;;10361322;28;19921;-53
2021/05/23 23:14:06;;;;;;;;;;;13.20;99.90;;;;;;10361896;28;19926;-52
2021/05/23 23:19:10;;;;;;;;;;;13.30;99.90;;;;;;10359108;28;20452;-51
2021/05/23 23:24:11;;;;;;;;;;;13.30;99.90;;;;;;10362557;28;20376;-52
2021/05/23 23:29:12;;;;;;;;;;;13.30;99.90;;;;;;10359350;28;19925;-51
2021/05/23 23:34:12;;;;;;;;;;;13.30;99.90;;;;;;10359482;28;19993;-51
2021/05/23 23:39:13;;;;;;;;;;;13.20;99.90;;;;;;10359540;28;19929;-51
2021/05/23 23:44:14;;;;;;;;;;;13.30;99.90;;;;;;10360801;28;20375;-51
2021/05/23 23:49:15;;;;;;;;;;;13.10;99.90;;;;;;10359066;28;19964;-51
2021/05/23 23:54:15;;;;;;;;;;;13.20;99.90;;;;;;10360491;28;19972;-51
2021/05/23 23:59:16;;;;;;;;;;;13.30;99.90;;;;;;10363856;28;19918;-51
